Portada
METAR-TAF:

METAR-TAF

Aeroports :

Rzeszów, Polònia

latitud: 50-06N, longitud: 022-03E, altitud: 200 m

Observació

L'informe es va fer fa 43 minuts, a les 13:30 UTC
Vent 10 kt del Est, variant entre Est/Nord-Est i Sud-Est
Temperatura 29°C
Humitat 43%
Pressió 1019 hPa
Visibilitat 10 km o més
sense núvols per sota de 1500 mi sense presència de cumulonimbus.

METAR: EPRZ 181330Z 10010KT 060V140 CAVOK 29/15 Q1019

Hora: 16:13 (14:13 UTC)

Pronòstic

L'informe es va fer fa 2 hores i 43 minuts, a les 11:30 UTC
Pronòstic vàlid del 18 a les 12 UTC al 19 a les 12 UTC
Vent 10 kt del Est/Sud-Est
Visibilitat 10 km o més
sense núvols per sota de 1500 mi sense presència de cumulonimbus.

TAF: EPRZ 181130Z 1812/1912 11010KT CAVOK

Observacions i pronòstics meteorològics de més de 4000 aeroports (METAR i TAF).

Les estacions disponibles són els punts grocs i vermells al mapa.

Posi el ratolí al punt desitjat per veure el nom de l'estació.

Feu clic per veure les observacions i els pronòstics meteorològics.

Per canviar el mapa: feu clic els botons verds amb una creu de color negre per apropar; al botó verd amb un guió per allunyar la imatge; o en les fletxes verdes per a mapes adjacents.


METAR-TAF: